KROX/ROX METAR and TAF weather

Enter ICAO airport designator
Station Type Date Time Source
KROX METAR 2021/03/05 07:35 UTC NOAA

KROX 050735Z AUTO 00000KT 10SM CLR 00/M06 A3034 RMK AO2 TSNO


Station Type Date Time Source
KROX Decoded METAR 2021/03/05 07:35 UTC NOAA

Roseau, Roseau Municipal Airport/Rudy Billberg Field, MN, United States (KROX) 48-51N 095-42W
Mar 05, 2021 - 02:35 AM EST / 2021.03.05 0735 UTC
Wind: Calm:0
Visibility: 10 mile(s):0
Sky conditions: clear
Temperature: 32 F (0 C)
Dew Point: 21 F (-6 C)
Relative Humidity: 63%
Pressure (altimeter): 30.34 in. Hg (1027 hPa)
ob: KROX 050735Z AUTO 00000KT 10SM CLR 00/M06 A3034 RMK AO2 TSNO
cycle: 7

Station Type Date Time Source
KROX TAF UTC NOAA

Error!

Example: see airport list